地図

経路データ

SID SEASON NUMBER BASIN SUBBASIN NAME ISO_TIME NATURE LAT LON WMO_WIND WMO_PRES WMO_AGENCY TRACK_TYPE DIST2LAND LANDFALL IFLAG USA_AGENCY USA_ATCF_ID USA_LAT USA_LON USA_RECORD USA_STATUS USA_WIND USA_PRES USA_SSHS USA_R34_NE USA_R34_SE USA_R34_SW USA_R34_NW USA_R50_NE USA_R50_SE USA_R50_SW USA_R50_NW USA_R64_NE USA_R64_SE USA_R64_SW USA_R64_NW USA_POCI USA_ROCI USA_RMW USA_EYE TOKYO_LAT TOKYO_LON TOKYO_GRADE TOKYO_WIND TOKYO_PRES TOKYO_R50_DIR TOKYO_R50_LONG TOKYO_R50_SHORT TOKYO_R30_DIR TOKYO_R30_LONG TOKYO_R30_SHORT TOKYO_LAND CMA_LAT CMA_LON CMA_CAT CMA_WIND CMA_PRES HKO_LAT HKO_LON HKO_CAT HKO_WIND HKO_PRES NEWDELHI_LAT NEWDELHI_LON NEWDELHI_GRADE NEWDELHI_WIND NEWDELHI_PRES NEWDELHI_CI NEWDELHI_DP NEWDELHI_POCI REUNION_LAT REUNION_LON REUNION_TYPE REUNION_WIND REUNION_PRES REUNION_TNUM REUNION_CI REUNION_RMW REUNION_R34_NE REUNION_R34_SE REUNION_R34_SW REUNION_R34_NW REUNION_R50_NE REUNION_R50_SE REUNION_R50_SW REUNION_R50_NW REUNION_R64_NE REUNION_R64_SE REUNION_R64_SW REUNION_R64_NW BOM_LAT BOM_LON BOM_TYPE BOM_WIND BOM_PRES BOM_TNUM BOM_CI BOM_RMW BOM_R34_NE BOM_R34_SE BOM_R34_SW BOM_R34_NW BOM_R50_NE BOM_R50_SE BOM_R50_SW BOM_R50_NW BOM_R64_NE BOM_R64_SE BOM_R64_SW BOM_R64_NW BOM_ROCI BOM_POCI BOM_EYE BOM_POS_METHOD BOM_PRES_METHOD NADI_LAT NADI_LON NADI_CAT NADI_WIND NADI_PRES WELLINGTON_LAT WELLINGTON_LON WELLINGTON_WIND WELLINGTON_PRES DS824_LAT DS824_LON DS824_STAGE DS824_WIND DS824_PRES TD9636_LAT TD9636_LON TD9636_STAGE TD9636_WIND TD9636_PRES TD9635_LAT TD9635_LON TD9635_WIND TD9635_PRES TD9635_ROCI NEUMANN_LAT NEUMANN_LON NEUMANN_CLASS NEUMANN_WIND NEUMANN_PRES MLC_LAT MLC_LON MLC_CLASS MLC_WIND MLC_PRES USA_GUST BOM_GUST BOM_GUST_PER REUNION_GUST REUNION_GUST_PER USA_SEAHGT USA_SEARAD_NE USA_SEARAD_SE USA_SEARAD_SW USA_SEARAD_NW STORM_SPEED STORM_DIR
1887274N15341 1887 55 NA NA NOT_NAMED 1887-09-30 12:00:00 TS 14.5000 -19.5000 main 216 216 _____________O -1 14.5000 -19.5000 TD 30 6 304
1887274N15341 1887 55 NA NA NOT_NAMED 1887-09-30 15:00:00 TS 14.6626 -19.7499 main 236 236 _____________P -1 14.6626 -19.7499 TD 35 6 302
1887274N15341 1887 55 NA NA NOT_NAMED 1887-09-30 18:00:00 TS 14.8000 -20.0000 main 269 269 _____________O -1 14.8000 -20.0000 TS 40 5 296
1887274N15341 1887 55 NA NA NOT_NAMED 1887-09-30 21:00:00 TS 14.9000 -20.2501 main 301 301 _____________P -1 14.9000 -20.2501 TS 45 5 292
1887274N15341 1887 55 NA NA NOT_NAMED 1887-10-01 00:00:00 TS 15.0000 -20.5000 main 324 324 _____________O -1 15.0000 -20.5000 TS 50 5 297
1887274N15341 1887 55 NA NA NOT_NAMED 1887-10-01 03:00:00 TS 15.1500 -20.7500 main 346 346 _____________P -1 15.1500 -20.7500 TS 52 6 302
1887274N15341 1887 55 NA NA NOT_NAMED 1887-10-01 06:00:00 TS 15.3000 -21.0000 main 382 382 _____________O -1 15.3000 -21.0000 TS 55 5 296
1887274N15341 1887 55 NA NA NOT_NAMED 1887-10-01 09:00:00 TS 15.3925 -21.2576 main 415 415 _____________P -1 15.3925 -21.2576 TS 55 5 293
1887274N15341 1887 55 NA NA NOT_NAMED 1887-10-01 12:00:00 TS 15.5000 -21.5000 main 438 438 _____________O -1 15.5000 -21.5000 TS 55 5 304
1887274N15341 1887 55 NA NA NOT_NAMED 1887-10-01 15:00:00 TS 15.6850 -21.7075 main 464 464 _____________P -1 15.6850 -21.7075 TS 55 6 316
1887274N15341 1887 55 NA NA NOT_NAMED 1887-10-01 18:00:00 TS 15.9000 -21.9000 main 490 490 _____________O -1 15.9000 -21.9000 TS 55 6 318
1887274N15341 1887 55 NA NA NOT_NAMED 1887-10-01 21:00:00 TS 16.1000 -22.1000 main 517 517 _____________P -1 16.1000 -22.1000 TS 55 6 316
1887274N15341 1887 55 NA NA NOT_NAMED 1887-10-02 00:00:00 TS 16.3000 -22.3000 main 544 544 _____________O -1 16.3000 -22.3000 TS 55 6 316
1887274N15341 1887 55 NA NA NOT_NAMED 1887-10-02 03:00:00 TS 16.5075 -22.5075 main 572 572 _____________P -1 16.5075 -22.5075 TS 55 6 316
1887274N15341 1887 55 NA NA NOT_NAMED 1887-10-02 06:00:00 TS 16.7000 -22.7000 main 600 600 _____________O -1 16.7000 -22.7000 TS 55 5 320
1887274N15341 1887 55 NA NA NOT_NAMED 1887-10-02 09:00:00 TS 16.8949 -22.8425 main 618 618 _____________P -1 16.8949 -22.8425 TS 55 4 316
1887274N15341 1887 55 NA NA NOT_NAMED 1887-10-02 12:00:00 TS 17.0000 -23.0000 main 642 642 _____________O -1 17.0000 -23.0000 TS 55 4 278
1887274N15341 1887 55 NA NA NOT_NAMED 1887-10-02 15:00:00 TS 16.9450 -23.2351 main 657 657 _____________P -1 16.9450 -23.2351 TS 55 5 247
1887274N15341 1887 55 NA NA NOT_NAMED 1887-10-02 18:00:00 TS 16.8000 -23.5000 main 683 683 _____________O -1 16.8000 -23.5000 TS 55 6 240
1887274N15341 1887 55 NA NA NOT_NAMED 1887-10-02 21:00:00 TS 16.6575 -23.7500 main 700 700 _____________P -1 16.6575 -23.7500 TS 55 6 238
1887274N15341 1887 55 NA NA NOT_NAMED 1887-10-03 00:00:00 TS 16.5000 -24.0000 main 724 724 _____________O -1 16.5000 -24.0000 TS 55 6 237
1887274N15341 1887 55 NA NA NOT_NAMED 1887-10-03 03:00:00 TS 16.3425 -24.2500 main 740 740 _____________P -1 16.3425 -24.2500 TS 55 6 238
1887274N15341 1887 55 NA NA NOT_NAMED 1887-10-03 06:00:00 TS 16.2000 -24.5000 main 769 769 _____________O -1 16.2000 -24.5000 TS 55 6 243
1887274N15341 1887 55 NA NA NOT_NAMED 1887-10-03 09:00:00 TS 16.0925 -24.7650 main 798 798 _____________P -1 16.0925 -24.7650 TS 55 5 247
1887274N15341 1887 55 NA NA NOT_NAMED 1887-10-03 12:00:00 TS 16.0000 -25.0000 main 817 817 _____________O -1 16.0000 -25.0000 TS 55 4 244
1887274N15341 1887 55 NA NA NOT_NAMED 1887-10-03 15:00:00 TS 15.9000 -25.1725 main 836 835 _____________P -1 15.9000 -25.1725 TS 55 4 235
1887274N15341 1887 55 NA NA NOT_NAMED 1887-10-03 18:00:00 TS 15.8000 -25.3000 main 846 846 _____________O -1 15.8000 -25.3000 TS 55 3 227
1887274N15341 1887 55 NA NA NOT_NAMED 1887-10-03 21:00:00 TS 15.6925 -25.4000 main 855 854 _____________P -1 15.6925 -25.4000 TS 55 3 224
1887274N15341 1887 55 NA NA NOT_NAMED 1887-10-04 00:00:00 TS 15.6000 -25.5000 main 864 864 _____________O -1 15.6000 -25.5000 TS 55 3 238
1887274N15341 1887 55 NA NA NOT_NAMED 1887-10-04 03:00:00 TS 15.5425 -25.6500 main 874 874 _____________P -1 15.5425 -25.6500 TS 55 3 251
1887274N15341 1887 55 NA NA NOT_NAMED 1887-10-04 06:00:00 TS 15.5000 -25.8000 main 895 895 _____________O -1 15.5000 -25.8000 TS 55 2 245
1887274N15341 1887 55 NA NA NOT_NAMED 1887-10-04 09:00:00 TS 15.4424 -25.8700 main 905 905 _____________P -1 15.4424 -25.8700 TS 55 2 243
1887274N15341 1887 55 NA NA NOT_NAMED 1887-10-04 12:00:00 TS 15.4000 -26.0000 main 916 916 _____________O -1 15.4000 -26.0000 TS 55 994 4 263
1887274N15341 1887 55 NA NA NOT_NAMED 1887-10-04 15:00:00 TS 15.3926 -26.3200 main 948 948 _____________P -1 15.3926 -26.3200 TS 55 7 270
1887274N15341 1887 55 NA NA NOT_NAMED 1887-10-04 18:00:00 TS 15.4000 -26.7000 main 991 991 _____________O -1 15.4000 -26.7000 TS 55 7 271
1887274N15341 1887 55 NA NA NOT_NAMED 1887-10-04 21:00:00 TS 15.3999 -27.0075 main 1023 1023 _____________P -1 15.3999 -27.0075 TS 52 6 270
1887274N15341 1887 55 NA NA NOT_NAMED 1887-10-05 00:00:00 TS 15.4000 -27.3000 main 1055 1055 _____________O -1 15.4000 -27.3000 TS 50 6 269
1887274N15341 1887 55 NA NA NOT_NAMED 1887-10-05 03:00:00 TS 15.3925 -27.6000 main 1087 1087 _____________P -1 15.3925 -27.6000 TS 47 6 270
1887274N15341 1887 55 NA NA NOT_NAMED 1887-10-05 06:00:00 TS 15.4000 -27.9000 main 1119 1119 _____________O -1 15.4000 -27.9000 TS 45 6 274
1887274N15341 1887 55 NA NA NOT_NAMED 1887-10-05 09:00:00 TS 15.4350 -28.2075 main 1152 1152 _____________P -1 15.4350 -28.2075 TS 45 6 280
1887274N15341 1887 55 NA NA NOT_NAMED 1887-10-05 12:00:00 TS 15.5000 -28.5000 main 1184 1184 _____________O -1 15.5000 -28.5000 TS 45 6 287
1887274N15341 1887 55 NA NA NOT_NAMED 1887-10-05 15:00:00 TS 15.5924 -28.7575 main 1217 1217 _____________P -1 15.5924 -28.7575 TS 42 5 293
1887274N15341 1887 55 NA NA NOT_NAMED 1887-10-05 18:00:00 TS 15.7000 -29.0000 main 1239 1239 _____________O -1 15.7000 -29.0000 TS 40 5 294
1887274N15341 1887 55 NA NA NOT_NAMED 1887-10-05 21:00:00 TS 15.8000 -29.2500 main 1272 1272 _____________P -1 15.8000 -29.2500 TS 40 5 293
1887274N15341 1887 55 NA NA NOT_NAMED 1887-10-06 00:00:00 TS 15.9000 -29.5000 main 1294 1294 _____________O -1 15.9000 -29.5000 TS 40 5 293
1887274N15341 1887 55 NA NA NOT_NAMED 1887-10-06 03:00:00 TS 16.0000 -29.7500 main 1327 1327 _____________P -1 16.0000 -29.7500 TS 40 5 293
1887274N15341 1887 55 NA NA NOT_NAMED 1887-10-06 06:00:00 TS 16.1000 -30.0000 main 1349 1349 _____________O -1 16.1000 -30.0000 TS 40 5 293
1887274N15341 1887 55 NA NA NOT_NAMED 1887-10-06 09:00:00 TS 16.2150 -30.2650 main 1382 1382 _____________P -1 16.2150 -30.2650 TS 40 5 293
1887274N15341 1887 55 NA NA NOT_NAMED 1887-10-06 12:00:00 TS 16.3000 -30.5000 main 1404 1404 _____________O -1 16.3000 -30.5000 TS 40 4 283
1887274N15341 1887 55 NA NA NOT_NAMED 1887-10-06 15:00:00 TS 16.3075 -30.6726 main 1425 1425 _____________P -1 16.3075 -30.6726 TS 37 3 270
1887274N15341 1887 55 NA NA NOT_NAMED 1887-10-06 18:00:00 TS 16.3000 -30.8000 main 1436 1436 _____________O -1 16.3000 -30.8000 TS 35 2 281
1887274N15341 1887 55 NA NA NOT_NAMED 1887-10-06 21:00:00 TS 16.3500 -30.9000 main 1447 1447 _____________P -1 16.3500 -30.9000 TS 35 2 297
1887274N15341 1887 55 NA NA NOT_NAMED 1887-10-07 00:00:00 TS 16.4000 -31.0000 main 1458 1458 _____________O -1 16.4000 -31.0000 TS 35 2 282
1887274N15341 1887 55 NA NA NOT_NAMED 1887-10-07 03:00:00 TS 16.4000 -31.1500 main 1480 1480 _____________P -1 16.4000 -31.1500 TS 35 3 270
1887274N15341 1887 55 NA NA NOT_NAMED 1887-10-07 06:00:00 TS 16.4000 -31.3000 main 1490 1490 _____________O -1 16.4000 -31.3000 TS 35 3 274
1887274N15341 1887 55 NA NA NOT_NAMED 1887-10-07 09:00:00 TS 16.4200 -31.4300 main 1501 1501 _____________P -1 16.4200 -31.4300 TS 35 2 297
1887274N15341 1887 55 NA NA NOT_NAMED 1887-10-07 12:00:00 TS 16.5000 -31.5000 main 1513 1513 _____________O -1 16.5000 -31.5000 TS 35 3 353
1887274N15341 1887 55 NA NA NOT_NAMED 1887-10-07 15:00:00 TS 16.6775 -31.4651 main 1515 1504 _____________P -1 16.6775 -31.4651 TS 35 4 13
1887274N15341 1887 55 NA NA NOT_NAMED 1887-10-07 18:00:00 TS 16.9000 -31.4000 main 1507 1507 _____________O -1 16.9000 -31.4000 TS 35 4 7
1887274N15341 1887 55 NA NA NOT_NAMED 1887-10-07 21:00:00 TS 17.1000 -31.4000 main 1510 1510 _____________P -1 17.1000 -31.4000 TS 35 4 0
1887274N15341 1887 55 NA NA NOT_NAMED 1887-10-08 00:00:00 TS 17.3000 -31.4000 main 1514 1514 _____________O -1 17.3000 -31.4000 TS 35 4 5
1887274N15341 1887 55 NA NA NOT_NAMED 1887-10-08 03:00:00 TS 17.5075 -31.3500 main 1517 1507 _____________P -1 17.5075 -31.3500 TS 35 4 13
1887274N15341 1887 55 NA NA NOT_NAMED 1887-10-08 06:00:00 TS 17.7000 -31.3000 main 1511 1511 _____________O -1 17.7000 -31.3000 TS 35 3 12
1887274N15341 1887 55 NA NA NOT_NAMED 1887-10-08 09:00:00 TS 17.8050 -31.2925 main 1513 1513 _____________P -1 17.8050 -31.2925 TS 35 3 0
1887274N15341 1887 55 NA NA NOT_NAMED 1887-10-08 12:00:00 TS 18.0000 -31.3000 main 1517 1510 _____________O -1 18.0000 -31.3000 TS 35 6 358
1887274N15341 1887 55 NA NA NOT_NAMED 1887-10-08 15:00:00 TS 18.4475 -31.2926 main 1510 1497 _____________P -1 18.4475 -31.2926 TS 32 10 1
1887274N15341 1887 55 NA NA NOT_NAMED 1887-10-08 18:00:00 TS 19.0000 -31.3000 main 1497 1488 _____________O -1 19.0000 -31.3000 TD 30 11 358
1887274N15341 1887 55 NA NA NOT_NAMED 1887-10-08 21:00:00 TS 19.5000 -31.3425 main 1488 1487 _____________P -1 19.5000 -31.3425 TD 30 10 354
1887274N15341 1887 55 NA NA NOT_NAMED 1887-10-09 00:00:00 TS 20.0000 -31.4000 main 1492 1488 _____________O -1 20.0000 -31.4000 TD 30 10 354
1887274N15341 1887 55 NA NA NOT_NAMED 1887-10-09 03:00:00 TS 20.5000 -31.4575 main 1497 1495 _____________P -1 20.5000 -31.4575 TD 27 10 354
1887274N15341 1887 55 NA NA NOT_NAMED 1887-10-09 06:00:00 TS 21.0000 -31.5000 main 1495 1494 _____________O -1 21.0000 -31.5000 TD 25 10 357
1887274N15341 1887 55 NA NA NOT_NAMED 1887-10-09 09:00:00 TS 21.5000 -31.5101 main 1494 1494 _____________P -1 21.5000 -31.5101 TD 25 10 1
1887274N15341 1887 55 NA NA NOT_NAMED 1887-10-09 12:00:00 TS 22.0000 -31.5000 main 1495 _____________O -1 22.0000 -31.5000 TD 25 10 2

IBTrACS Databaseについて

本データベースは、米国NOAAが公開する1842年以降の世界の熱帯低気圧のベストトラックデータアーカイブInternational Best Track Archive for Climate Stewardship (IBTrACS)を、ウェブで閲覧しやすい形式に変換したものです。

最終更新日:2021-10-08